Time,TemperatureF,DewpointF,PressureIn,WindDirection,WindDirectionDegrees,WindSpeedMPH,WindSpeedGustMPH,Humidity,HourlyPrecipIn,Conditions,Clouds,dailyrainin,SoftwareType,DateUTC
2013-05-02 00:03:00,45.0,35.0,30.45,North,-999,-999.0,-999.0,67,0.00,,,0.00,,2013-05-02 04:03:00,
2013-05-02 00:12:00,45.0,35.0,30.45,North,-999,-999.0,-999.0,67,0.00,,,0.00,,2013-05-02 04:12:00,
2013-05-02 00:23:00,45.0,35.0,30.45,North,-999,-999.0,-999.0,68,0.00,,,0.00,,2013-05-02 04:23:00,
2013-05-02 00:33:00,45.0,36.0,30.44,North,-999,-999.0,-999.0,71,0.00,,,0.00,,2013-05-02 04:33:00,
2013-05-02 00:42:00,45.0,36.0,30.44,North,-999,-999.0,-999.0,71,0.00,,,0.00,,2013-05-02 04:42:00,
2013-05-02 00:52:00,44.0,36.0,30.45,North,-999,-999.0,-999.0,72,0.00,,,0.00,,2013-05-02 04:52:00,
2013-05-02 01:02:00,43.0,35.0,30.45,North,-999,-999.0,-999.0,73,0.00,,,0.00,,2013-05-02 05:02:00,
2013-05-02 01:12:00,43.0,35.0,30.45,North,-999,-999.0,-999.0,73,0.00,,,0.00,,2013-05-02 05:12:00,
2013-05-02 01:22:00,43.0,35.0,30.44,North,-999,-999.0,-999.0,74,0.00,,,0.00,,2013-05-02 05:22:00,
2013-05-02 01:32:00,43.0,36.0,30.44,North,-999,-999.0,-999.0,75,0.00,,,0.00,,2013-05-02 05:32:00,
2013-05-02 01:42:00,43.0,36.0,30.44,North,-999,-999.0,-999.0,75,0.00,,,0.00,,2013-05-02 05:42:00,
2013-05-02 01:52:00,42.0,35.0,30.44,North,-999,-999.0,-999.0,76,0.00,,,0.00,,2013-05-02 05:52:00,
2013-05-02 02:01:00,42.0,35.0,30.43,North,-999,-999.0,-999.0,77,0.00,,,0.00,,2013-05-02 06:01:00,
2013-05-02 02:12:00,42.0,35.0,30.43,North,-999,-999.0,-999.0,77,0.00,,,0.00,,2013-05-02 06:12:00,
2013-05-02 02:21:00,42.0,36.0,30.42,North,-999,-999.0,-999.0,79,0.00,,,0.00,,2013-05-02 06:21:00,
2013-05-02 02:32:00,42.0,37.0,30.42,North,-999,-999.0,-999.0,81,0.00,,,0.00,,2013-05-02 06:32:00,
2013-05-02 02:42:00,42.0,37.0,30.42,North,-999,-999.0,-999.0,81,0.00,,,0.00,,2013-05-02 06:42:00,
2013-05-02 02:52:00,42.0,37.0,30.42,North,-999,-999.0,-999.0,81,0.00,,,0.00,,2013-05-02 06:52:00,
2013-05-02 03:02:00,41.0,36.0,30.42,North,-999,-999.0,-999.0,82,0.00,,,0.00,,2013-05-02 07:02:00,
2013-05-02 03:11:00,41.0,36.0,30.42,North,-999,-999.0,-999.0,82,0.00,,,0.00,,2013-05-02 07:11:00,
2013-05-02 03:21:00,41.0,36.0,30.41,North,-999,-999.0,-999.0,83,0.00,,,0.00,,2013-05-02 07:21:00,
2013-05-02 03:32:00,41.0,37.0,30.41,North,-999,-999.0,-999.0,84,0.00,,,0.00,,2013-05-02 07:32:00,
2013-05-02 03:42:00,41.0,37.0,30.41,North,-999,-999.0,-999.0,84,0.00,,,0.00,,2013-05-02 07:42:00,
2013-05-02 03:52:00,41.0,37.0,30.41,North,-999,-999.0,-999.0,85,0.00,,,0.00,,2013-05-02 07:52:00,
2013-05-02 04:02:00,41.0,37.0,30.41,North,-999,-999.0,-999.0,85,0.00,,,0.00,,2013-05-02 08:02:00,
2013-05-02 04:11:00,41.0,37.0,30.41,North,-999,-999.0,-999.0,85,0.00,,,0.00,,2013-05-02 08:11:00,
2013-05-02 04:22:00,41.0,37.0,30.41,North,-999,-999.0,-999.0,86,0.00,,,0.00,,2013-05-02 08:22:00,
2013-05-02 04:32:00,41.0,37.0,30.41,North,-999,-999.0,-999.0,87,0.00,,,0.00,,2013-05-02 08:32:00,
2013-05-02 04:42:00,41.0,37.0,30.41,North,-999,-999.0,-999.0,87,0.00,,,0.00,,2013-05-02 08:42:00,
2013-05-02 04:52:00,41.0,37.0,30.41,North,-999,-999.0,-999.0,87,0.00,,,0.00,,2013-05-02 08:52:00,
2013-05-02 05:02:00,41.0,38.0,30.41,North,-999,-999.0,-999.0,88,0.00,,,0.00,,2013-05-02 09:02:00,
2013-05-02 05:12:00,41.0,38.0,30.41,North,-999,-999.0,-999.0,88,0.00,,,0.00,,2013-05-02 09:12:00,
2013-05-02 05:21:00,40.0,37.0,30.41,North,-999,-999.0,-999.0,88,0.00,,,0.00,,2013-05-02 09:21:00,
2013-05-02 05:32:00,40.0,37.0,30.41,North,-999,-999.0,-999.0,89,0.00,,,0.00,,2013-05-02 09:32:00,
2013-05-02 05:42:00,40.0,37.0,30.41,North,-999,-999.0,-999.0,89,0.00,,,0.00,,2013-05-02 09:42:00,
2013-05-02 05:52:00,40.0,37.0,30.41,North,-999,-999.0,-999.0,89,0.00,,,0.00,,2013-05-02 09:52:00,
2013-05-02 06:03:00,40.0,37.0,30.41,North,-999,-999.0,-999.0,89,0.00,,,0.00,,2013-05-02 10:03:00,
2013-05-02 06:12:00,40.0,37.0,30.41,North,-999,-999.0,-999.0,89,0.00,,,0.00,,2013-05-02 10:12:00,
2013-05-02 06:22:00,40.0,37.0,30.41,North,-999,-999.0,-999.0,90,0.00,,,0.00,,2013-05-02 10:22:00,
2013-05-02 06:33:00,40.0,37.0,30.42,North,-999,-999.0,-999.0,90,0.00,,,0.00,,2013-05-02 10:33:00,
2013-05-02 06:42:00,40.0,37.0,30.42,North,-999,-999.0,-999.0,90,0.00,,,0.00,,2013-05-02 10:42:00,
2013-05-02 06:53:00,40.0,38.0,30.42,North,-999,-999.0,-999.0,91,0.00,,,0.00,,2013-05-02 10:53:00,
2013-05-02 07:02:00,41.0,39.0,30.42,North,-999,-999.0,-999.0,92,0.00,,,0.00,,2013-05-02 11:02:00,
2013-05-02 07:12:00,41.0,39.0,30.42,North,-999,-999.0,-999.0,92,0.00,,,0.00,,2013-05-02 11:12:00,
2013-05-02 07:22:00,41.0,39.0,30.42,North,-999,-999.0,-999.0,92,0.00,,,0.00,,2013-05-02 11:22:00,
2013-05-02 07:32:00,43.0,41.0,30.43,North,-999,-999.0,-999.0,92,0.00,,,0.00,,2013-05-02 11:32:00,
2013-05-02 07:42:00,43.0,41.0,30.43,North,-999,-999.0,-999.0,92,0.00,,,0.00,,2013-05-02 11:42:00,
2013-05-02 07:52:00,46.0,44.0,30.43,North,-999,-999.0,-999.0,91,0.00,,,0.00,,2013-05-02 11:52:00,
2013-05-02 08:01:00,49.0,42.0,30.43,North,-999,-999.0,-999.0,78,0.00,,,0.00,,2013-05-02 12:01:00,
2013-05-02 08:12:00,49.0,42.0,30.43,North,-999,-999.0,-999.0,78,0.00,,,0.00,,2013-05-02 12:12:00,
2013-05-02 08:21:00,52.0,43.0,30.43,North,-999,-999.0,-999.0,70,0.00,,,0.00,,2013-05-02 12:21:00,
2013-05-02 08:32:00,54.0,43.0,30.43,North,-999,-999.0,-999.0,65,0.00,,,0.00,,2013-05-02 12:32:00,
2013-05-02 08:42:00,54.0,43.0,30.43,North,-999,-999.0,-999.0,65,0.00,,,0.00,,2013-05-02 12:42:00,
2013-05-02 08:52:00,56.0,42.0,30.44,North,-999,-999.0,-999.0,60,0.00,,,0.00,,2013-05-02 12:52:00,
2013-05-02 09:01:00,58.0,42.0,30.43,North,-999,-999.0,-999.0,55,0.00,,,0.00,,2013-05-02 13:01:00,
2013-05-02 09:11:00,58.0,42.0,30.43,North,-999,-999.0,-999.0,55,0.00,,,0.00,,2013-05-02 13:11:00,
2013-05-02 09:22:00,61.0,42.0,30.42,North,-999,-999.0,-999.0,50,0.00,,,0.00,,2013-05-02 13:22:00,
2013-05-02 09:32:00,63.0,42.0,30.42,North,-999,-999.0,-999.0,47,0.00,,,0.00,,2013-05-02 13:32:00,
2013-05-02 09:42:00,63.0,42.0,30.42,North,-999,-999.0,-999.0,47,0.00,,,0.00,,2013-05-02 13:42:00,
2013-05-02 09:52:00,64.0,42.0,30.42,North,-999,-999.0,-999.0,45,0.00,,,0.00,,2013-05-02 13:52:00,
2013-05-02 10:02:00,64.0,40.0,30.42,North,-999,-999.0,-999.0,42,0.00,,,0.00,,2013-05-02 14:02:00,
2013-05-02 10:11:00,64.0,40.0,30.42,North,-999,-999.0,-999.0,42,0.00,,,0.00,,2013-05-02 14:11:00,
2013-05-02 10:22:00,68.0,42.0,30.42,North,-999,-999.0,-999.0,39,0.00,,,0.00,,2013-05-02 14:22:00,
2013-05-02 10:32:00,68.0,39.0,30.42,North,-999,-999.0,-999.0,35,0.00,,,0.00,,2013-05-02 14:32:00,
2013-05-02 10:42:00,68.0,39.0,30.42,North,-999,-999.0,-999.0,35,0.00,,,0.00,,2013-05-02 14:42:00,
2013-05-02 10:52:00,69.0,38.0,30.42,North,-999,-999.0,-999.0,32,0.00,,,0.00,,2013-05-02 14:52:00,
2013-05-02 11:02:00,71.0,38.0,30.41,North,-999,-999.0,-999.0,30,0.00,,,0.00,,2013-05-02 15:02:00,
2013-05-02 11:12:00,71.0,38.0,30.41,North,-999,-999.0,-999.0,30,0.00,,,0.00,,2013-05-02 15:12:00,
2013-05-02 11:22:00,72.0,36.0,30.41,North,-999,-999.0,-999.0,27,0.00,,,0.00,,2013-05-02 15:22:00,
2013-05-02 11:33:00,73.0,38.0,30.40,North,-999,-999.0,-999.0,28,0.00,,,0.00,,2013-05-02 15:33:00,
2013-05-02 11:43:00,73.0,38.0,30.40,North,-999,-999.0,-999.0,28,0.00,,,0.00,,2013-05-02 15:43:00,
2013-05-02 12:03:00,71.0,36.0,30.40,North,-999,-999.0,-999.0,28,0.00,,,0.00,,2013-05-02 16:03:00,
2013-05-02 12:13:00,71.0,36.0,30.40,North,-999,-999.0,-999.0,28,0.00,,,0.00,,2013-05-02 16:13:00,
2013-05-02 12:22:00,74.0,35.0,30.38,North,-999,-999.0,-999.0,24,0.00,,,0.00,,2013-05-02 16:22:00,
2013-05-02 12:32:00,74.0,39.0,30.37,North,-999,-999.0,-999.0,28,0.00,,,0.00,,2013-05-02 16:32:00,
2013-05-02 12:43:00,74.0,39.0,30.37,North,-999,-999.0,-999.0,28,0.00,,,0.00,,2013-05-02 16:43:00,
2013-05-02 12:52:00,75.0,38.0,30.37,North,-999,-999.0,-999.0,26,0.00,,,0.00,,2013-05-02 16:52:00,
2013-05-02 13:02:00,74.0,39.0,30.36,North,-999,-999.0,-999.0,28,0.00,,,0.00,,2013-05-02 17:02:00,
2013-05-02 13:12:00,74.0,39.0,30.36,North,-999,-999.0,-999.0,28,0.00,,,0.00,,2013-05-02 17:12:00,
2013-05-02 13:22:00,75.0,37.0,30.36,North,-999,-999.0,-999.0,25,0.00,,,0.00,,2013-05-02 17:22:00,
2013-05-02 13:32:00,77.0,38.0,30.35,North,-999,-999.0,-999.0,25,0.00,,,0.00,,2013-05-02 17:32:00,
2013-05-02 13:42:00,77.0,38.0,30.35,North,-999,-999.0,-999.0,25,0.00,,,0.00,,2013-05-02 17:42:00,
2013-05-02 13:52:00,76.0,37.0,30.35,North,-999,-999.0,-999.0,24,0.00,,,0.00,,2013-05-02 17:52:00,
2013-05-02 14:01:00,76.0,37.0,30.35,North,-999,-999.0,-999.0,24,0.00,,,0.00,,2013-05-02 18:01:00,
2013-05-02 14:12:00,76.0,37.0,30.35,North,-999,-999.0,-999.0,24,0.00,,,0.00,,2013-05-02 18:12:00,
2013-05-02 14:22:00,76.0,36.0,30.35,North,-999,-999.0,-999.0,23,0.00,,,0.00,,2013-05-02 18:22:00,
2013-05-02 14:32:00,75.0,38.0,30.34,North,-999,-999.0,-999.0,26,0.00,,,0.00,,2013-05-02 18:32:00,
2013-05-02 14:42:00,75.0,38.0,30.34,North,-999,-999.0,-999.0,26,0.00,,,0.00,,2013-05-02 18:42:00,
2013-05-02 14:52:00,77.0,38.0,30.33,North,-999,-999.0,-999.0,25,0.00,,,0.00,,2013-05-02 18:52:00,
2013-05-02 15:01:00,78.0,37.0,30.33,North,-999,-999.0,-999.0,23,0.00,,,0.00,,2013-05-02 19:01:00,
2013-05-02 15:11:00,78.0,37.0,30.33,North,-999,-999.0,-999.0,23,0.00,,,0.00,,2013-05-02 19:11:00,
2013-05-02 15:22:00,76.0,37.0,30.33,North,-999,-999.0,-999.0,24,0.00,,,0.00,,2013-05-02 19:22:00,
2013-05-02 15:32:00,78.0,39.0,30.33,North,-999,-999.0,-999.0,25,0.00,,,0.00,,2013-05-02 19:32:00,
2013-05-02 15:42:00,78.0,39.0,30.33,North,-999,-999.0,-999.0,25,0.00,,,0.00,,2013-05-02 19:42:00,
2013-05-02 15:52:00,78.0,39.0,30.32,North,-999,-999.0,-999.0,25,0.00,,,0.00,,2013-05-02 19:52:00,
2013-05-02 16:02:00,76.0,38.0,30.32,North,-999,-999.0,-999.0,25,0.00,,,0.00,,2013-05-02 20:02:00,
2013-05-02 16:11:00,76.0,38.0,30.32,North,-999,-999.0,-999.0,25,0.00,,,0.00,,2013-05-02 20:11:00,
2013-05-02 16:22:00,75.0,38.0,30.32,North,-999,-999.0,-999.0,26,0.00,,,0.00,,2013-05-02 20:22:00,
2013-05-02 16:32:00,72.0,36.0,30.33,North,-999,-999.0,-999.0,27,0.00,,,0.00,,2013-05-02 20:32:00,
2013-05-02 16:42:00,72.0,36.0,30.33,North,-999,-999.0,-999.0,27,0.00,,,0.00,,2013-05-02 20:42:00,
2013-05-02 16:52:00,72.0,36.0,30.33,North,-999,-999.0,-999.0,27,0.00,,,0.00,,2013-05-02 20:52:00,
2013-05-02 17:01:00,69.0,36.0,30.35,ENE,64,12.0,17.0,30,0.00,,,0.00,,2013-05-02 21:01:00,
2013-05-02 17:12:00,69.0,36.0,30.35,ENE,64,12.0,17.0,30,0.00,,,0.00,,2013-05-02 21:12:00,
2013-05-02 17:21:00,66.0,37.0,30.36,North,-999,-999.0,-999.0,34,0.00,,,0.00,,2013-05-02 21:21:00,
2013-05-02 17:33:00,64.0,40.0,30.37,North,-999,-999.0,-999.0,42,0.00,,,0.00,,2013-05-02 21:33:00,
2013-05-02 17:42:00,64.0,40.0,30.37,North,-999,-999.0,-999.0,42,0.00,,,0.00,,2013-05-02 21:42:00,
2013-05-02 17:53:00,62.0,40.0,30.38,North,-999,-999.0,-999.0,45,0.00,,,0.00,,2013-05-02 21:53:00,
2013-05-02 18:03:00,60.0,39.0,30.39,North,-999,-999.0,-999.0,45,0.00,,,0.00,,2013-05-02 22:03:00,
2013-05-02 18:12:00,60.0,39.0,30.39,North,-999,-999.0,-999.0,45,0.00,,,0.00,,2013-05-02 22:12:00,
2013-05-02 18:22:00,59.0,39.0,30.40,North,-999,-999.0,-999.0,48,0.00,,,0.00,,2013-05-02 22:22:00,
2013-05-02 18:32:00,57.0,39.0,30.41,North,-999,-999.0,-999.0,50,0.00,,,0.00,,2013-05-02 22:32:00,
2013-05-02 18:42:00,57.0,39.0,30.41,North,-999,-999.0,-999.0,50,0.00,,,0.00,,2013-05-02 22:42:00,
2013-05-02 18:53:00,57.0,38.0,30.41,North,-999,-999.0,-999.0,48,0.00,,,0.00,,2013-05-02 22:53:00,
2013-05-02 19:02:00,56.0,38.0,30.42,North,-999,-999.0,-999.0,50,0.00,,,0.00,,2013-05-02 23:02:00,
2013-05-02 19:11:00,56.0,38.0,30.42,North,-999,-999.0,-999.0,50,0.00,,,0.00,,2013-05-02 23:11:00,
2013-05-02 19:22:00,55.0,39.0,30.42,North,-999,-999.0,-999.0,54,0.00,,,0.00,,2013-05-02 23:22:00,
2013-05-02 19:32:00,55.0,40.0,30.44,North,-999,-999.0,-999.0,56,0.00,,,0.00,,2013-05-02 23:32:00,
2013-05-02 19:42:00,55.0,40.0,30.44,North,-999,-999.0,-999.0,56,0.00,,,0.00,,2013-05-02 23:42:00,
2013-05-02 19:52:00,54.0,39.0,30.44,North,-999,-999.0,-999.0,57,0.00,,,0.00,,2013-05-02 23:52:00,
2013-05-02 20:01:00,53.0,39.0,30.45,North,-999,-999.0,-999.0,58,0.00,,,0.00,,2013-05-03 00:01:00,
2013-05-02 20:11:00,53.0,39.0,30.45,North,-999,-999.0,-999.0,58,0.00,,,0.00,,2013-05-03 00:11:00,
2013-05-02 20:21:00,52.0,39.0,30.46,North,-999,-999.0,-999.0,60,0.00,,,0.00,,2013-05-03 00:21:00,
2013-05-02 20:32:00,51.0,36.0,30.47,North,-999,-999.0,-999.0,57,0.00,,,0.00,,2013-05-03 00:32:00,
2013-05-02 20:42:00,51.0,36.0,30.47,North,-999,-999.0,-999.0,57,0.00,,,0.00,,2013-05-03 00:42:00,
2013-05-02 20:52:00,51.0,35.0,30.47,North,-999,-999.0,-999.0,54,0.00,,,0.00,,2013-05-03 00:52:00,
2013-05-02 21:01:00,50.0,34.0,30.48,North,-999,-999.0,-999.0,53,0.00,,,0.00,,2013-05-03 01:01:00,
2013-05-02 21:11:00,50.0,34.0,30.48,North,-999,-999.0,-999.0,53,0.00,,,0.00,,2013-05-03 01:11:00,
2013-05-02 21:21:00,50.0,34.0,30.48,North,-999,-999.0,-999.0,53,0.00,,,0.00,,2013-05-03 01:21:00,
2013-05-02 21:32:00,50.0,35.0,30.48,North,-999,-999.0,-999.0,56,0.00,,,0.00,,2013-05-03 01:32:00,
2013-05-02 21:42:00,50.0,35.0,30.48,North,-999,-999.0,-999.0,56,0.00,,,0.00,,2013-05-03 01:42:00,
2013-05-02 21:52:00,49.0,35.0,30.48,North,-999,-999.0,-999.0,58,0.00,,,0.00,,2013-05-03 01:52:00,
2013-05-02 22:01:00,49.0,36.0,30.48,North,-999,-999.0,-999.0,60,0.00,,,0.00,,2013-05-03 02:01:00,
2013-05-02 22:11:00,49.0,36.0,30.48,North,-999,-999.0,-999.0,60,0.00,,,0.00,,2013-05-03 02:11:00,
2013-05-02 22:22:00,49.0,36.0,30.47,North,-999,-999.0,-999.0,60,0.00,,,0.00,,2013-05-03 02:22:00,
2013-05-02 22:32:00,49.0,36.0,30.48,North,-999,-999.0,-999.0,61,0.00,,,0.00,,2013-05-03 02:32:00,
2013-05-02 22:42:00,49.0,36.0,30.48,North,-999,-999.0,-999.0,61,0.00,,,0.00,,2013-05-03 02:42:00,
2013-05-02 22:52:00,49.0,36.0,30.48,North,-999,-999.0,-999.0,61,0.00,,,0.00,,2013-05-03 02:52:00,
2013-05-02 23:01:00,48.0,36.0,30.48,North,-999,-999.0,-999.0,62,0.00,,,0.00,,2013-05-03 03:01:00,
2013-05-02 23:11:00,48.0,36.0,30.48,North,-999,-999.0,-999.0,62,0.00,,,0.00,,2013-05-03 03:11:00,
2013-05-02 23:21:00,48.0,36.0,30.48,North,-999,-999.0,-999.0,62,0.00,,,0.00,,2013-05-03 03:21:00,
2013-05-02 23:33:00,47.0,35.0,30.48,North,-999,-999.0,-999.0,64,0.00,,,0.00,,2013-05-03 03:33:00,
2013-05-02 23:43:00,47.0,35.0,30.48,North,-999,-999.0,-999.0,64,0.00,,,0.00,,2013-05-03 03:43:00,
2013-05-02 23:52:00,47.0,36.0,30.48,North,-999,-999.0,-999.0,66,0.00,,,0.00,,2013-05-03 03:52:00,